createdAt,value
2018-07-12T00:00:25.531Z,2.25
2018-07-12T00:02:53.521Z,3.33
2018-07-12T00:05:21.569Z,2.22
2018-07-12T00:07:49.627Z,1.90
2018-07-12T00:10:17.657Z,2.30
2018-07-12T00:12:45.668Z,3.65
2018-07-12T00:15:13.692Z,1.82
2018-07-12T00:17:41.938Z,2.00
2018-07-12T00:20:09.963Z,2.37
2018-07-12T00:22:38.062Z,2.12
2018-07-12T00:25:06.104Z,2.05
2018-07-12T00:27:34.128Z,2.50
2018-07-12T00:30:02.162Z,1.90
2018-07-12T00:32:30.170Z,1.80
2018-07-12T00:34:58.199Z,2.22
2018-07-12T00:37:26.191Z,2.08
2018-07-12T00:39:54.233Z,2.10
2018-07-12T00:42:22.301Z,2.17
2018-07-12T00:44:50.418Z,3.35
2018-07-12T00:47:18.404Z,2.70
2018-07-12T00:49:46.404Z,2.67
2018-07-12T00:52:14.464Z,2.65
2018-07-12T00:54:42.719Z,2.75
2018-07-12T00:57:11.413Z,2.10
2018-07-12T00:59:39.557Z,2.60
2018-07-12T01:02:07.580Z,2.10
2018-07-12T01:04:36.124Z,2.65
2018-07-12T01:07:04.519Z,1.80
2018-07-12T01:09:32.535Z,2.05
2018-07-12T01:12:00.564Z,3.05
2018-07-12T01:14:28.550Z,2.52
2018-07-12T01:16:56.854Z,2.10
2018-07-12T01:19:24.869Z,2.92
2018-07-12T01:21:52.987Z,3.12
2018-07-12T01:24:20.996Z,2.60
2018-07-12T01:26:49.016Z,2.55
2018-07-12T01:29:17.022Z,3.17
2018-07-12T01:31:45.054Z,2.35
2018-07-12T01:34:13.033Z,2.85
2018-07-12T01:36:41.063Z,2.47
2018-07-12T01:39:09.071Z,4.17
2018-07-12T01:41:37.098Z,2.30
2018-07-12T01:44:05.104Z,2.30
2018-07-12T01:46:33.122Z,2.58
2018-07-12T01:49:01.167Z,2.37
2018-07-12T01:51:29.190Z,3.77
2018-07-12T01:53:57.193Z,2.87
2018-07-12T01:56:25.220Z,3.58
2018-07-12T01:58:53.225Z,3.02
2018-07-12T02:01:21.268Z,2.70
2018-07-12T02:03:49.286Z,3.50
2018-07-12T02:06:17.299Z,2.37
2018-07-12T02:08:45.307Z,3.55
2018-07-12T02:11:13.339Z,3.10
2018-07-12T02:13:41.348Z,3.50
2018-07-12T02:16:09.364Z,3.27
2018-07-12T02:18:37.355Z,3.40
2018-07-12T02:21:05.381Z,3.72
2018-07-12T02:23:33.374Z,3.03
2018-07-12T02:26:01.390Z,4.05
2018-07-12T02:28:29.488Z,2.90
2018-07-12T02:30:57.854Z,3.22
2018-07-12T02:33:25.999Z,2.80
2018-07-12T02:35:54.018Z,3.72
2018-07-12T02:38:22.051Z,2.77
2018-07-12T02:40:50.091Z,4.10
2018-07-12T02:43:18.163Z,4.55
2018-07-12T02:45:46.171Z,3.55
2018-07-12T02:48:14.241Z,3.90
2018-07-12T02:50:42.265Z,3.12
2018-07-12T02:53:10.283Z,5.15
2018-07-12T02:55:38.561Z,3.42
2018-07-12T02:58:06.588Z,4.30
2018-07-12T03:00:34.589Z,3.02
2018-07-12T03:03:02.655Z,2.80
2018-07-12T03:05:30.675Z,3.00
2018-07-12T03:07:58.742Z,3.30
2018-07-12T03:10:26.740Z,3.87
2018-07-12T03:12:54.764Z,3.60
2018-07-12T03:15:22.791Z,3.17
2018-07-12T03:17:50.835Z,4.30
2018-07-12T03:20:18.828Z,4.80
2018-07-12T03:22:46.861Z,4.72
2018-07-12T03:25:14.880Z,4.27
2018-07-12T03:27:42.915Z,3.60
2018-07-12T03:30:10.910Z,3.67
2018-07-12T03:32:38.949Z,3.67
2018-07-12T03:35:06.959Z,3.00
2018-07-12T03:37:34.991Z,3.33
2018-07-12T03:40:02.979Z,3.77
2018-07-12T03:42:31.000Z,5.00
2018-07-12T03:44:59.339Z,3.30
2018-07-12T03:47:27.357Z,4.47
2018-07-12T03:49:55.351Z,4.62
2018-07-12T03:52:23.389Z,5.53
2018-07-12T03:54:51.657Z,4.60
2018-07-12T03:57:19.688Z,3.93
2018-07-12T03:59:47.693Z,4.20
2018-07-12T04:02:15.826Z,3.52
2018-07-12T04:04:43.833Z,5.58
2018-07-12T04:07:11.867Z,4.47
2018-07-12T04:09:39.883Z,4.55
2018-07-12T04:12:07.922Z,6.97
2018-07-12T04:14:35.946Z,4.90
2018-07-12T04:17:03.975Z,4.95
2018-07-12T04:19:31.980Z,5.17
2018-07-12T04:22:00.026Z,5.65
2018-07-12T04:24:28.048Z,5.77
2018-07-12T04:26:56.245Z,5.45
2018-07-12T04:29:24.254Z,5.33
2018-07-12T04:31:52.313Z,5.08
2018-07-12T04:34:20.340Z,7.00
2018-07-12T04:36:48.405Z,4.50
2018-07-12T04:39:16.428Z,5.22
2018-07-12T04:41:44.472Z,6.07
2018-07-12T04:44:12.503Z,4.10
2018-07-12T04:46:40.499Z,6.75
2018-07-12T04:49:08.549Z,6.12
2018-07-12T04:51:36.570Z,6.77
2018-07-12T04:54:04.610Z,5.22
2018-07-12T04:56:32.602Z,7.28
2018-07-12T04:59:00.645Z,9.43
2018-07-12T05:01:28.663Z,5.33
2018-07-12T05:03:56.717Z,7.62
2018-07-12T05:06:24.748Z,7.35
2018-07-12T05:08:52.785Z,8.30
2018-07-12T05:11:20.844Z,7.03
2018-07-12T05:13:48.899Z,8.95
2018-07-12T05:16:17.010Z,8.43
2018-07-12T05:18:44.975Z,9.18
2018-07-12T05:21:13.007Z,8.27
2018-07-12T05:23:41.032Z,9.95
2018-07-12T05:26:09.051Z,8.73
2018-07-12T05:28:37.183Z,6.78
2018-07-12T05:31:05.421Z,9.27
2018-07-12T05:33:33.451Z,9.18
2018-07-12T05:36:11.571Z,9.53
2018-07-12T05:38:41.691Z,8.00
2018-07-12T05:41:11.755Z,8.53
2018-07-12T05:43:41.826Z,8.93
2018-07-12T05:46:11.851Z,10.03
2018-07-12T05:48:41.934Z,8.20
2018-07-12T05:51:11.997Z,9.43
2018-07-12T05:53:42.104Z,8.95
2018-07-12T05:56:12.175Z,7.08
2018-07-12T05:58:42.269Z,7.35
2018-07-12T06:01:29.028Z,7.50
2018-07-12T06:03:59.134Z,7.97
2018-07-12T06:06:29.215Z,10.13
2018-07-12T06:08:59.332Z,7.07
2018-07-12T06:11:29.398Z,9.15
2018-07-12T06:13:59.455Z,8.05
2018-07-12T06:16:29.543Z,9.03
2018-07-12T06:18:59.716Z,8.23
2018-07-12T06:21:29.807Z,9.80
2018-07-12T06:23:59.926Z,8.85
2018-07-12T06:26:29.978Z,9.18
2018-07-12T06:29:00.072Z,8.90
2018-07-12T06:31:30.155Z,8.63
2018-07-12T06:34:00.233Z,12.50
2018-07-12T06:36:30.299Z,9.45
2018-07-12T06:39:00.419Z,10.20
2018-07-12T06:41:30.523Z,10.38
2018-07-12T06:44:00.633Z,10.72
2018-07-12T06:46:30.732Z,10.60
2018-07-12T06:49:00.844Z,9.65
2018-07-12T06:51:30.886Z,8.78
2018-07-12T06:54:00.964Z,13.13
2018-07-12T06:56:31.009Z,8.85
2018-07-12T06:59:01.169Z,9.10
2018-07-12T07:01:31.207Z,9.00
2018-07-12T07:04:01.321Z,9.75
2018-07-12T07:06:31.403Z,12.00
2018-07-12T07:09:01.482Z,11.73
2018-07-12T07:11:31.570Z,9.35
2018-07-12T07:14:01.705Z,10.18
2018-07-12T07:16:31.790Z,16.15
2018-07-12T07:19:01.893Z,13.05
2018-07-12T07:21:31.982Z,12.70
2018-07-12T07:24:02.151Z,12.63
2018-07-12T07:26:32.215Z,13.00
2018-07-12T07:29:02.369Z,13.28
2018-07-12T07:31:32.478Z,14.53
2018-07-12T07:34:02.556Z,15.25
2018-07-12T07:36:32.202Z,14.40
2018-07-12T07:39:02.286Z,19.42
2018-07-12T07:41:31.930Z,16.12
2018-07-12T07:44:02.043Z,13.30
2018-07-12T07:46:32.106Z,12.00
2018-07-12T07:49:02.265Z,10.57
2018-07-12T07:51:33.209Z,11.78
2018-07-12T07:54:03.320Z,11.35
2018-07-12T07:56:33.403Z,16.60
2018-07-12T07:59:03.587Z,13.35
2018-07-12T08:01:33.717Z,13.70
2018-07-12T08:04:03.739Z,12.00
2018-07-12T08:06:33.852Z,12.63
2018-07-12T08:09:04.513Z,13.35
2018-07-12T08:11:34.612Z,11.00
2018-07-12T08:14:04.283Z,13.48
2018-07-12T08:16:34.380Z,14.93
2018-07-12T08:19:04.492Z,15.55
2018-07-12T08:21:34.592Z,13.72
2018-07-12T08:24:04.683Z,13.45
2018-07-12T08:26:34.768Z,12.70
2018-07-12T08:29:04.845Z,13.98
2018-07-12T08:31:34.963Z,14.70
2018-07-12T08:34:05.037Z,13.50
2018-07-12T08:36:35.122Z,13.30
2018-07-12T08:39:05.888Z,15.35
2018-07-12T08:41:35.995Z,13.90
2018-07-12T08:44:06.190Z,13.95
2018-07-12T08:46:35.922Z,12.20
2018-07-12T08:49:06.039Z,12.43
2018-07-12T08:51:36.119Z,12.63
2018-07-12T08:54:06.221Z,10.32
2018-07-12T08:56:36.361Z,10.53
2018-07-12T08:59:06.456Z,9.85
2018-07-12T09:01:36.676Z,9.03
2018-07-12T09:04:06.807Z,9.20
2018-07-12T09:06:36.955Z,9.23
2018-07-12T09:09:08.306Z,10.37
2018-07-12T09:11:38.450Z,7.58
2018-07-12T09:14:08.467Z,7.65
2018-07-12T09:16:38.593Z,7.12
2018-07-12T09:19:08.657Z,7.83
2018-07-12T09:21:38.784Z,7.45
2018-07-12T09:24:08.835Z,6.05
2018-07-12T09:26:38.948Z,7.55
2018-07-12T09:29:09.046Z,6.70
2018-07-12T09:31:39.155Z,6.23
2018-07-12T09:34:09.264Z,6.50
2018-07-12T09:36:39.402Z,6.20
2018-07-12T09:39:09.468Z,6.30
2018-07-12T09:41:39.595Z,6.10
2018-07-12T09:44:09.753Z,6.53
2018-07-12T09:46:39.839Z,6.00
2018-07-12T09:49:09.938Z,5.60
2018-07-12T09:51:40.026Z,5.95
2018-07-12T09:54:10.119Z,6.20
2018-07-12T09:56:56.739Z,6.22
2018-07-12T09:59:26.797Z,5.28
2018-07-12T10:02:01.980Z,5.03
2018-07-12T10:04:32.025Z,5.30
2018-07-12T10:07:07.126Z,5.80
2018-07-12T10:09:42.241Z,5.70
2018-07-12T10:12:16.284Z,5.37
2018-07-12T10:14:51.409Z,6.80
2018-07-12T10:17:26.507Z,6.40
2018-07-12T10:19:56.690Z,5.10
2018-07-12T10:22:26.707Z,5.10
2018-07-12T10:24:56.763Z,4.50
2018-07-12T10:27:27.115Z,5.62
2018-07-12T10:29:57.198Z,4.17
2018-07-12T10:32:27.450Z,4.10
2018-07-12T10:34:57.072Z,5.45
2018-07-12T10:37:27.303Z,4.55
2018-07-12T10:39:57.327Z,4.30
2018-07-12T10:42:27.423Z,4.30
2018-07-12T10:44:57.595Z,5.12
2018-07-12T10:47:27.703Z,9.53
2018-07-12T10:49:57.779Z,5.80
2018-07-12T10:52:29.698Z,5.30
2018-07-12T10:54:59.840Z,5.08
2018-07-12T10:57:30.036Z,6.15
2018-07-12T11:00:00.174Z,4.70
2018-07-12T11:02:30.547Z,4.92
2018-07-12T11:05:00.234Z,5.08
2018-07-12T11:07:30.569Z,6.12
2018-07-12T11:10:00.687Z,4.80
2018-07-12T11:12:30.900Z,4.58
2018-07-12T11:15:01.021Z,4.83
2018-07-12T11:17:31.288Z,5.97
2018-07-12T11:20:01.085Z,4.37
2018-07-12T11:22:31.251Z,4.12
2018-07-12T11:25:01.397Z,6.20
2018-07-12T11:27:31.652Z,4.25
2018-07-12T11:30:01.767Z,4.40
2018-07-12T11:32:32.018Z,4.95
2018-07-12T11:35:01.715Z,4.92
2018-07-12T11:37:31.930Z,6.10
2018-07-12T11:40:02.056Z,4.20
2018-07-12T11:42:32.262Z,4.20
2018-07-12T11:45:02.367Z,4.20
2018-07-12T11:47:32.820Z,5.22
2018-07-12T11:50:02.985Z,5.10
2018-07-12T11:52:33.214Z,5.73
2018-07-12T11:55:03.305Z,6.12
2018-07-12T11:57:33.546Z,5.35
2018-07-12T12:00:03.759Z,5.08
2018-07-12T12:02:34.024Z,6.22
2018-07-12T12:05:04.191Z,5.83
2018-07-12T12:07:34.758Z,5.00
2018-07-12T12:10:04.874Z,4.72
2018-07-12T12:12:35.073Z,4.45
2018-07-12T12:15:05.247Z,5.08
2018-07-12T12:17:35.446Z,4.23
2018-07-12T12:20:05.595Z,4.58
2018-07-12T12:22:35.793Z,4.17
2018-07-12T12:25:05.949Z,5.08
2018-07-12T12:27:35.819Z,3.87
2018-07-12T12:30:05.898Z,3.75
2018-07-12T12:32:36.130Z,3.58
2018-07-12T12:35:06.308Z,3.70
2018-07-12T12:37:36.496Z,5.87
2018-07-12T12:40:06.753Z,4.65
2018-07-12T12:42:36.991Z,3.83
2018-07-12T12:45:07.120Z,4.22
2018-07-12T12:47:37.456Z,4.50
2018-07-12T12:50:08.034Z,3.90
2018-07-12T12:52:38.131Z,4.35
2018-07-12T12:55:08.803Z,4.53
2018-07-12T12:57:39.409Z,5.10
2018-07-12T13:00:09.659Z,4.00
2018-07-12T13:02:39.831Z,4.60
2018-07-12T13:05:09.923Z,5.95
2018-07-12T13:07:40.172Z,4.50
2018-07-12T13:10:10.783Z,3.77
2018-07-12T13:12:40.937Z,3.47
2018-07-12T13:15:11.006Z,3.17
2018-07-12T13:17:41.167Z,3.25
2018-07-12T13:20:11.367Z,3.50
2018-07-12T13:22:41.559Z,3.75
2018-07-12T13:25:11.616Z,4.62
2018-07-12T13:27:41.814Z,4.42
2018-07-12T13:30:11.927Z,3.27
2018-07-12T13:32:42.076Z,3.17
2018-07-12T13:35:12.122Z,4.12
2018-07-12T13:37:42.213Z,6.43
2018-07-12T13:40:12.291Z,3.70
2018-07-12T13:42:42.393Z,3.72
2018-07-12T13:45:12.472Z,3.70
2018-07-12T13:47:42.562Z,3.10
2018-07-12T13:50:12.662Z,3.98
2018-07-12T13:52:42.726Z,2.98
2018-07-12T13:55:12.806Z,3.85
2018-07-12T13:57:42.975Z,3.47
2018-07-12T14:00:13.078Z,2.92
2018-07-12T14:02:43.175Z,3.12
2018-07-12T14:05:13.237Z,3.10
2018-07-12T14:07:43.014Z,2.75
2018-07-12T14:10:13.083Z,2.27
2018-07-12T14:12:43.140Z,4.53
2018-07-12T14:15:13.256Z,2.98
2018-07-12T14:17:43.420Z,2.52
2018-07-12T14:20:13.618Z,2.47
2018-07-12T14:22:43.695Z,3.00
2018-07-12T14:25:13.734Z,2.62
2018-07-12T14:27:43.757Z,2.20
2018-07-12T14:30:13.943Z,2.33
2018-07-12T14:32:44.019Z,4.97
2018-07-12T14:35:14.137Z,4.35
2018-07-12T14:37:44.218Z,2.17
2018-07-12T14:40:14.391Z,2.37
2018-07-12T14:42:44.522Z,4.33
2018-07-12T14:45:14.719Z,3.13
2018-07-12T14:47:44.758Z,2.20
2018-07-12T14:50:14.959Z,2.83
2018-07-12T14:52:45.091Z,2.10
2018-07-12T14:55:15.201Z,2.30
2018-07-12T14:57:45.188Z,2.55
2018-07-12T15:00:15.301Z,3.42
2018-07-12T15:02:45.574Z,2.10
2018-07-12T15:05:15.676Z,2.67
2018-07-12T15:07:45.345Z,2.33
2018-07-12T15:10:15.561Z,2.17
2018-07-12T15:12:45.607Z,2.45
2018-07-12T15:15:15.737Z,2.20
2018-07-12T15:17:45.812Z,1.87
2018-07-12T15:20:15.973Z,1.70
2018-07-12T15:22:46.031Z,2.67
2018-07-12T15:25:16.177Z,2.02
2018-07-12T15:27:46.236Z,2.17
2018-07-12T15:30:16.310Z,3.37
2018-07-12T15:32:46.371Z,2.90
2018-07-12T15:35:17.386Z,2.00
2018-07-12T15:37:47.433Z,2.27
2018-07-12T15:40:17.655Z,2.10
2018-07-12T15:42:47.776Z,2.22
2018-07-12T15:45:17.955Z,1.90
2018-07-12T15:47:48.309Z,2.83
2018-07-12T15:50:24.859Z,2.55
2018-07-12T15:52:55.175Z,3.12
2018-07-12T15:55:25.319Z,2.27
2018-07-12T15:57:55.359Z,2.42
2018-07-12T16:00:25.495Z,3.90
2018-07-12T16:02:55.775Z,2.60
2018-07-12T16:05:25.912Z,2.42
2018-07-12T16:07:55.958Z,3.20
2018-07-12T16:10:26.080Z,1.72
2018-07-12T16:12:56.172Z,4.30
2018-07-12T16:15:26.277Z,1.87
2018-07-12T16:17:56.343Z,2.70
2018-07-12T16:20:26.567Z,3.62
2018-07-12T16:22:56.624Z,2.83
2018-07-12T16:25:26.728Z,2.10
2018-07-12T16:27:56.875Z,2.10
2018-07-12T16:30:26.971Z,2.40
2018-07-12T16:32:57.055Z,2.80
2018-07-12T16:35:27.156Z,1.80
2018-07-12T16:37:57.349Z,2.08
2018-07-12T16:40:27.483Z,2.15
2018-07-12T16:42:57.579Z,2.20
2018-07-12T16:45:27.738Z,1.95
2018-07-12T16:47:58.306Z,1.95
2018-07-12T16:50:28.429Z,1.92
2018-07-12T16:52:58.497Z,1.72
2018-07-12T16:55:28.611Z,2.15
2018-07-12T16:57:58.731Z,2.08
2018-07-12T17:00:28.785Z,3.20
2018-07-12T17:02:58.882Z,1.50
2018-07-12T17:05:28.874Z,1.50
2018-07-12T17:07:59.040Z,1.70
2018-07-12T17:10:29.129Z,1.87
2018-07-12T17:12:59.237Z,3.10
2018-07-12T17:15:29.266Z,2.30
2018-07-12T17:17:59.377Z,2.60
2018-07-12T17:20:29.495Z,1.95
2018-07-12T17:22:59.604Z,2.03
2018-07-12T17:25:29.634Z,2.03
2018-07-12T17:27:59.691Z,2.37
2018-07-12T17:30:29.740Z,3.57
2018-07-12T17:32:59.856Z,3.17
2018-07-12T17:35:29.852Z,2.12
2018-07-12T17:38:00.761Z,4.17
2018-07-12T17:40:30.887Z,2.93
2018-07-12T17:43:00.912Z,2.50
2018-07-12T17:45:30.944Z,2.60
2018-07-12T17:48:01.062Z,2.60
2018-07-12T17:50:31.147Z,1.63
2018-07-12T17:53:01.282Z,2.40
2018-07-12T17:55:31.380Z,2.47
2018-07-12T17:58:01.483Z,3.17
2018-07-12T18:00:31.579Z,2.02
2018-07-12T18:03:01.856Z,3.00
2018-07-12T18:05:32.063Z,2.55
2018-07-12T18:08:02.161Z,2.95
2018-07-12T18:10:32.281Z,2.00
2018-07-12T18:13:02.393Z,3.02
2018-07-12T18:15:32.487Z,2.10
2018-07-12T18:18:02.615Z,2.05
2018-07-12T18:20:32.710Z,2.67
2018-07-12T18:23:02.788Z,2.20
2018-07-12T18:25:32.838Z,2.50
2018-07-12T18:28:02.935Z,2.08
2018-07-12T18:30:33.017Z,2.22
2018-07-12T18:33:03.456Z,2.90
2018-07-12T18:35:33.509Z,3.20
2018-07-12T18:38:03.657Z,3.57
2018-07-12T18:40:33.711Z,2.02
2018-07-12T18:43:03.835Z,3.12
2018-07-12T18:45:33.945Z,3.10
2018-07-12T18:48:04.489Z,1.92
2018-07-12T18:50:34.613Z,2.35
2018-07-12T18:53:05.063Z,2.20
2018-07-12T18:55:35.856Z,2.30
2018-07-12T18:58:05.980Z,2.45
2018-07-12T19:00:36.744Z,2.15
2018-07-12T19:03:07.057Z,2.47
2018-07-12T19:05:37.160Z,2.85
2018-07-12T19:08:07.368Z,2.37
2018-07-12T19:10:37.456Z,2.60
2018-07-12T19:13:07.637Z,2.47
2018-07-12T19:15:37.730Z,1.92
2018-07-12T19:18:07.851Z,4.67
2018-07-12T19:20:38.008Z,3.20
2018-07-12T19:23:08.619Z,2.92
2018-07-12T19:25:38.833Z,2.40
2018-07-12T19:28:09.308Z,3.08
2018-07-12T19:30:39.947Z,5.45
2018-07-12T19:33:09.995Z,3.35
2018-07-12T19:35:40.122Z,2.90
2018-07-12T19:38:10.355Z,2.10
2018-07-12T19:40:40.392Z,4.27
2018-07-12T19:43:11.151Z,3.98
2018-07-12T19:45:41.458Z,2.15
2018-07-12T19:48:11.809Z,3.67
2018-07-12T19:50:41.927Z,3.37
2018-07-12T19:53:12.073Z,3.20
2018-07-12T19:55:42.140Z,2.90
2018-07-12T19:58:12.166Z,2.45
2018-07-12T20:00:42.247Z,2.20
2018-07-12T20:03:12.315Z,3.87
2018-07-12T20:05:42.374Z,2.93
2018-07-12T20:08:12.568Z,2.90
2018-07-12T20:10:42.619Z,3.35
2018-07-12T20:13:12.641Z,2.37
2018-07-12T20:15:42.659Z,3.10
2018-07-12T20:18:12.702Z,2.30
2018-07-12T20:20:42.843Z,3.47
2018-07-12T20:23:13.376Z,2.67
2018-07-12T20:25:43.917Z,2.67
2018-07-12T20:28:14.133Z,3.75
2018-07-12T20:30:44.225Z,2.87
2018-07-12T20:33:14.323Z,3.25
2018-07-12T20:35:44.381Z,3.33
2018-07-12T20:38:14.371Z,2.62
2018-07-12T20:40:44.440Z,2.70
2018-07-12T20:43:21.285Z,3.70
2018-07-12T20:45:51.347Z,4.22
2018-07-12T20:48:21.343Z,2.87
2018-07-12T20:50:51.397Z,3.52
2018-07-12T20:53:21.397Z,2.60
2018-07-12T20:55:51.836Z,2.90
2018-07-12T20:58:21.853Z,4.25
2018-07-12T21:00:52.001Z,2.80
2018-07-12T21:03:22.047Z,2.65
2018-07-12T21:05:52.695Z,2.95
2018-07-12T21:08:22.813Z,2.77
2018-07-12T21:10:52.846Z,3.20
2018-07-12T21:13:22.869Z,2.70
2018-07-12T21:15:53.033Z,2.58
2018-07-12T21:18:23.041Z,2.80
2018-07-12T21:20:53.070Z,3.00
2018-07-12T21:23:23.075Z,3.00
2018-07-12T21:25:53.079Z,3.75
2018-07-12T21:28:23.102Z,3.72
2018-07-12T21:30:53.118Z,2.52
2018-07-12T21:33:23.158Z,2.47
2018-07-12T21:35:53.141Z,2.97
2018-07-12T21:38:23.171Z,3.10
2018-07-12T21:40:53.198Z,4.10
2018-07-12T21:43:23.203Z,3.77
2018-07-12T21:45:53.259Z,4.20
2018-07-12T21:48:23.278Z,2.95
2018-07-12T21:50:53.297Z,3.92
2018-07-12T21:53:23.264Z,4.20
2018-07-12T21:55:53.300Z,3.35
2018-07-12T21:58:23.409Z,3.30
2018-07-12T22:00:53.447Z,4.17
2018-07-12T22:03:23.543Z,2.60
2018-07-12T22:05:53.554Z,3.40
2018-07-12T22:08:26.137Z,3.25
2018-07-12T22:10:57.593Z,2.97
2018-07-12T22:13:28.399Z,3.72
2018-07-12T22:17:01.333Z,3.90
2018-07-12T22:19:31.324Z,3.33
2018-07-12T22:22:01.382Z,3.52
2018-07-12T22:24:31.373Z,5.00
2018-07-12T22:27:01.411Z,3.58
2018-07-12T22:29:31.413Z,3.13
2018-07-12T22:32:01.460Z,3.77
2018-07-12T22:34:31.533Z,5.22
2018-07-12T22:37:01.568Z,3.20
2018-07-12T22:39:31.567Z,2.90
2018-07-12T22:42:01.592Z,3.20
2018-07-12T22:44:31.601Z,3.80
2018-07-12T22:47:01.640Z,3.20
2018-07-12T22:49:31.641Z,3.12
2018-07-12T22:52:01.659Z,4.15
2018-07-12T22:54:31.671Z,2.80
2018-07-12T22:57:01.684Z,4.00
2018-07-12T22:59:31.663Z,2.98
2018-07-12T23:02:08.279Z,3.65
2018-07-12T23:04:38.580Z,3.10
2018-07-12T23:07:09.120Z,3.50
2018-07-12T23:09:39.459Z,3.58
2018-07-12T23:12:09.965Z,2.75
2018-07-12T23:14:40.320Z,2.90
2018-07-12T23:17:10.374Z,3.70
2018-07-12T23:19:40.016Z,3.40
2018-07-12T23:22:10.103Z,3.30
2018-07-12T23:24:40.279Z,3.20
2018-07-12T23:27:10.298Z,2.80
2018-07-12T23:29:40.327Z,3.02
2018-07-12T23:32:10.381Z,3.80
2018-07-12T23:34:40.452Z,2.95
2018-07-12T23:37:10.500Z,3.80
2018-07-12T23:39:40.531Z,3.00
2018-07-12T23:42:10.597Z,2.90
2018-07-12T23:44:40.667Z,3.47
2018-07-12T23:47:10.721Z,2.90
2018-07-12T23:49:40.736Z,3.25
2018-07-12T23:52:10.797Z,3.55
2018-07-12T23:54:40.807Z,2.80
2018-07-12T23:57:10.839Z,3.00
2018-07-12T23:59:40.873Z,3.17
